Date,TemperatureHighF,TemperatureAvgF,TemperatureLowF,DewpointHighF,DewpointAvgF,DewpointLowF,HumidityHigh,HumidityAvg,HumidityLow,PressureMaxIn,PressureMinIn,WindSpeedMaxMPH,WindSpeedAvgMPH,GustSpeedMaxMPH,PrecipitationSumIn
2013-2-1,71.6,62.5,54.0,56.9,50.0,40.7,75,64,54,28.08,27.98,11,3,25,0.00
2013-2-2,71.9,64.0,56.2,55.0,50.1,38.3,83,61,51,28.04,27.96,6,1,14,0.00
2013-2-3,73.0,63.5,57.2,54.9,52.8,46.5,89,71,39,27.98,27.90,10,1,18,0.00
2013-2-4,71.7,66.0,54.4,56.1,54.6,47.6,80,67,57,27.92,27.87,1,0,11,0.00
2013-2-5,75.7,67.4,56.8,64.3,59.5,53.3,90,77,60,27.90,27.83,8,1,15,0.00
2013-2-6,77.9,70.7,62.5,67.7,63.7,60.6,95,80,67,27.94,27.85,8,1,13,0.00
2013-2-7,78.4,74.2,70.1,67.9,65.5,63.1,82,75,67,27.92,27.82,11,2,16,0.00
2013-2-8,81.3,74.4,69.5,71.0,68.6,65.1,94,83,66,27.86,27.76,13,1,18,0.00
2013-2-9,77.2,70.8,65.4,68.3,64.7,61.0,95,82,71,27.99,27.82,8,2,18,0.00
2013-2-10,74.7,72.0,69.9,64.4,62.6,59.0,81,73,66,28.03,27.93,14,4,20,0.01
2013-2-11,77.1,73.4,70.6,66.5,64.7,62.2,80,74,70,28.02,27.94,15,2,17,0.00
2013-2-12,80.4,74.7,69.2,70.5,68.2,65.4,89,81,69,27.93,27.82,18,2,23,0.00
2013-2-13,80.9,75.2,69.0,73.4,70.8,66.8,95,87,78,27.83,27.74,11,2,23,0.00
2013-2-14,77.5,70.9,63.1,72.3,68.2,61.6,96,91,82,27.83,27.72,12,1,26,0.65
2013-2-15,72.2,66.7,63.4,67.5,64.8,62.2,97,94,83,27.82,27.76,5,0,13,0.74
2013-2-16,71.8,64.9,55.7,63.7,57.3,46.0,97,78,49,27.86,27.68,17,4,29,0.01
2013-2-17,57.9,51.6,44.8,46.1,30.5,20.6,73,47,26,28.05,27.83,17,5,26,0.00
2013-2-18,68.1,59.5,47.4,58.5,46.6,34.7,73,63,52,28.02,27.95,12,4,20,0.00
2013-2-19,75.6,71.6,67.8,67.1,62.1,54.7,89,72,62,27.95,27.88,12,2,20,0.00
2013-2-20,76.4,70.3,64.5,68.0,65.0,60.2,96,84,61,27.91,27.83,11,1,14,0.00
2013-2-21,79.0,74.4,70.8,69.1,67.2,64.9,87,79,70,27.89,27.80,9,1,16,0.00
2013-2-22,79.9,75.7,72.9,72.4,70.4,67.0,89,84,78,27.91,27.83,16,3,24,0.00
2013-2-23,80.0,76.4,73.3,73.0,71.2,68.9,91,84,78,27.88,27.75,15,4,21,0.00
2013-2-24,83.4,76.4,71.2,74.9,71.9,69.4,97,87,66,27.80,27.73,12,1,17,0.00
2013-2-25,81.1,75.6,70.1,74.2,71.4,67.3,95,87,78,27.73,27.64,13,2,25,0.00
2013-2-26,81.7,78.3,75.2,74.3,72.4,71.1,90,82,72,27.71,27.61,11,2,23,0.00
2013-2-27,76.9,70.3,64.8,73.3,66.4,63.0,96,88,69,27.77,27.67,7,0,12,0.26
2013-2-28,68.7,63.9,59.6,63.6,55.1,47.0,96,74,46,27.77,27.69,10,2,18,0.00